Time;durP1;ratioP1;P1;durP2;ratioP2;P2;SDS_P1;SDS_P2;PMS_P1;PMS_P2;Temp;Humidity;BMP_temperature;BMP_pressure;BME280_temperature;BME280_humidity;BME280_pressure;Samples;Min_cycle;Max_cycle;Signal;HPM_P1;HPM_P2
2023/04/10 00:00:05;;;;;;;105.50;49.20;;;6.70;99.90;;;;;;4958450;28;20026;-76
2023/04/10 00:02:31;;;;;;;100.85;50.00;;;6.70;99.90;;;;;;4975824;28;20551;-76
2023/04/10 00:04:58;;;;;;;101.38;51.33;;;6.70;99.90;;;;;;4975796;28;20045;-76
2023/04/10 00:07:23;;;;;;;115.47;56.55;;;6.70;99.90;;;;;;4958390;28;20114;-76
2023/04/10 00:09:49;;;;;;;107.25;54.80;;;6.70;99.90;;;;;;4975667;28;20110;-76
2023/04/10 00:12:15;;;;;;;100.82;48.63;;;6.70;99.90;;;;;;4958337;28;20051;-76
2023/04/10 00:14:41;;;;;;;99.07;49.05;;;6.80;99.90;;;;;;4957971;28;20046;-77
2023/04/10 00:17:06;;;;;;;91.95;45.20;;;6.80;99.90;;;;;;4975675;28;20022;-76
2023/04/10 00:19:32;;;;;;;96.35;47.17;;;6.70;99.90;;;;;;4975331;28;20090;-76
2023/04/10 00:21:58;;;;;;;94.60;44.33;;;6.70;99.90;;;;;;4954774;28;20050;-76
2023/04/10 00:24:24;;;;;;;102.95;48.22;;;6.70;99.90;;;;;;4954689;28;20055;-77
2023/04/10 00:26:49;;;;;;;96.70;48.55;;;6.70;99.90;;;;;;4954945;29;20106;-76
2023/04/10 00:29:15;;;;;;;98.35;45.22;;;6.70;99.90;;;;;;4955921;28;20053;-76
2023/04/10 00:31:41;;;;;;;103.35;50.53;;;6.70;99.90;;;;;;4954774;29;20027;-76
2023/04/10 00:34:07;;;;;;;95.05;46.35;;;6.70;99.90;;;;;;4953489;28;20046;-76
2023/04/10 00:36:34;;;;;;;96.13;46.80;;;6.70;99.90;;;;;;4954694;29;20110;-76
2023/04/10 00:39:00;;;;;;;102.55;47.40;;;6.70;99.90;;;;;;4954484;28;20019;-76
2023/04/10 00:41:25;;;;;;;100.50;47.47;;;6.70;99.90;;;;;;4955895;28;20023;-76
2023/04/10 00:43:58;;;;;;;99.80;47.83;;;6.70;99.90;;;;;;4955737;28;20038;-76
2023/04/10 00:46:24;;;;;;;;;;;6.70;99.90;;;;;;4956226;28;20067;-76
2023/04/10 00:48:51;;;;;;;104.78;46.75;;;6.70;99.90;;;;;;4955697;28;20336;-76
2023/04/10 00:51:19;;;;;;;101.57;45.97;;;6.70;99.90;;;;;;4954481;29;20482;-76
2023/04/10 00:53:46;;;;;;;104.18;48.15;;;6.60;99.90;;;;;;4955482;28;20085;-77
2023/04/10 00:56:12;;;;;;;111.45;49.75;;;6.60;99.90;;;;;;4954470;29;20067;-76
2023/04/10 00:58:38;;;;;;;110.45;49.78;;;6.60;99.90;;;;;;4955407;28;20113;-76
2023/04/10 01:01:04;;;;;;;120.63;50.72;;;6.60;99.90;;;;;;4953934;29;20398;-76
2023/04/10 01:03:29;;;;;;;112.55;49.55;;;6.60;99.90;;;;;;4955324;28;20023;-76
2023/04/10 01:06:17;;;;;;;129.98;52.20;;;6.60;99.90;;;;;;4955495;29;20034;-76
2023/04/10 01:08:57;;;;;;;114.45;47.55;;;6.60;99.90;;;;;;4955280;28;20035;-77
2023/04/10 01:11:50;;;;;;;125.75;52.33;;;6.60;99.90;;;;;;4970299;28;20117;-77
2023/04/10 01:14:40;;;;;;;116.60;52.88;;;6.60;99.90;;;;;;4954060;28;20119;-76
2023/04/10 01:17:05;;;;;;;123.43;50.47;;;6.70;99.90;;;;;;4955437;29;20035;-76
2023/04/10 01:19:52;;;;;;;130.07;51.42;;;6.70;99.90;;;;;;4955219;28;20030;-76
2023/04/10 01:22:24;;;;;;;118.63;47.65;;;6.70;99.90;;;;;;4970235;28;20077;-76
2023/04/10 01:25:01;;;;;;;130.43;50.85;;;6.70;99.90;;;;;;4954039;28;20046;-76
2023/04/10 01:27:35;;;;;;;122.68;52.88;;;6.70;99.90;;;;;;4955279;29;20074;-76
2023/04/10 01:30:02;;;;;;;135.25;53.28;;;6.70;99.90;;;;;;4953926;29;20041;-76
2023/04/10 01:32:32;;;;;;;123.90;51.88;;;6.70;99.90;;;;;;4953924;29;20023;-76
2023/04/10 01:35:05;;;;;;;122.07;50.17;;;6.70;99.90;;;;;;4954985;28;20078;-76
2023/04/10 01:37:33;;;;;;;110.07;46.05;;;6.70;99.90;;;;;;4955156;28;20037;-76
2023/04/10 01:40:02;;;;;;;117.65;51.05;;;6.70;99.90;;;;;;4955008;28;20027;-76
2023/04/10 01:42:37;;;;;;;123.68;51.78;;;6.70;99.90;;;;;;4953820;29;20027;-76
2023/04/10 01:45:07;;;;;;;139.57;52.63;;;6.60;99.90;;;;;;4956034;28;20024;-76
2023/04/10 01:47:33;;;;;;;122.43;51.63;;;6.60;99.90;;;;;;4959005;28;20474;-76
2023/04/10 01:50:00;;;;;;;136.60;54.13;;;6.60;99.90;;;;;;4958930;28;20027;-76
2023/04/10 01:52:27;;;;;;;145.50;55.70;;;6.70;99.90;;;;;;4957558;29;20030;-76
2023/04/10 01:54:54;;;;;;;141.68;55.33;;;6.70;99.90;;;;;;4958842;28;20046;-76
2023/04/10 01:57:20;;;;;;;134.13;50.50;;;6.70;99.90;;;;;;4959070;29;20031;-76
2023/04/10 01:59:46;;;;;;;136.02;53.95;;;6.70;99.90;;;;;;4957336;28;20389;-77
2023/04/10 02:02:11;;;;;;;135.65;52.20;;;6.70;99.90;;;;;;4958302;29;20020;-76
2023/04/10 02:04:37;;;;;;;149.38;59.55;;;6.60;99.90;;;;;;4958673;28;20028;-76
2023/04/10 02:07:09;;;;;;;133.80;53.67;;;6.70;99.90;;;;;;4958724;29;20386;-77
2023/04/10 02:10:20;;;;;;;115.55;51.38;;;6.60;99.90;;;;;;4957262;28;20462;-76
2023/04/10 02:12:54;;;;;;;129.63;54.05;;;6.60;99.90;;;;;;4918311;29;20522;-76
2023/04/10 02:15:22;;;;;;;125.78;52.70;;;6.60;99.90;;;;;;4955363;29;20095;-76
2023/04/10 02:17:50;;;;;;;125.13;48.55;;;6.60;99.90;;;;;;4958596;28;20038;-76
2023/04/10 02:20:18;;;;;;;135.27;52.67;;;6.60;99.90;;;;;;4958718;28;20027;-76
2023/04/10 02:22:44;;;;;;;119.25;47.42;;;6.60;99.90;;;;;;4977781;28;20031;-76
2023/04/10 02:25:10;;;;;;;136.52;53.08;;;6.60;99.90;;;;;;4977619;28;20034;-76
2023/04/10 02:27:37;;;;;;;128.10;54.95;;;6.70;99.90;;;;;;4977490;28;20027;-76
2023/04/10 02:30:04;;;;;;;138.27;54.38;;;6.70;99.90;;;;;;4959902;28;20026;-76
2023/04/10 02:32:31;;;;;;;128.35;54.78;;;6.70;99.90;;;;;;4960058;28;20026;-76
2023/04/10 02:34:57;;;;;;;141.63;55.13;;;6.70;99.90;;;;;;4977327;28;20039;-76
2023/04/10 02:37:23;;;;;;;152.85;55.90;;;6.80;99.90;;;;;;4977513;28;20026;-76
2023/04/10 02:39:48;;;;;;;144.95;54.35;;;6.70;99.90;;;;;;4959979;28;20374;-76
2023/04/10 02:42:14;;;;;;;158.27;57.63;;;6.60;99.90;;;;;;4977412;28;20231;-76
2023/04/10 02:44:40;;;;;;;150.38;53.90;;;6.70;99.90;;;;;;4959835;28;20023;-77
2023/04/10 02:47:06;;;;;;;130.93;52.70;;;6.60;99.90;;;;;;4977366;28;20042;-76
2023/04/10 02:49:33;;;;;;;135.68;53.05;;;6.60;99.90;;;;;;4977097;28;20041;-76
2023/04/10 02:51:59;;;;;;;139.25;52.30;;;6.60;99.90;;;;;;4977239;28;20022;-76
2023/04/10 02:54:25;;;;;;;147.00;55.72;;;6.60;99.90;;;;;;4959584;28;20043;-76
2023/04/10 02:56:51;;;;;;;190.15;59.28;;;6.60;99.90;;;;;;4976002;28;20033;-76
2023/04/10 02:59:16;;;;;;;148.55;54.00;;;6.60;99.90;;;;;;4976934;28;20098;-76
2023/04/10 03:01:42;;;;;;;195.68;59.15;;;6.60;99.90;;;;;;4976943;28;20536;-76
2023/04/10 03:04:08;;;;;;;242.05;64.13;;;6.60;99.90;;;;;;4977104;28;20026;-76
2023/04/10 03:06:34;;;;;;;172.65;52.97;;;6.50;99.90;;;;;;4976792;28;20403;-76
2023/04/10 03:09:00;;;;;;;277.63;66.07;;;6.50;99.90;;;;;;4977054;28;20070;-76
2023/04/10 03:11:26;;;;;;;197.13;57.30;;;6.50;99.90;;;;;;4976836;28;20030;-76
2023/04/10 03:13:51;;;;;;;230.77;60.40;;;6.50;99.90;;;;;;4976718;28;20031;-76
2023/04/10 03:16:17;;;;;;;242.35;64.32;;;6.50;99.90;;;;;;4976729;28;20029;-76
2023/04/10 03:18:43;;;;;;;298.75;69.95;;;6.50;99.90;;;;;;4959234;28;20487;-76
2023/04/10 03:21:09;;;;;;;250.48;66.50;;;6.50;99.90;;;;;;4976490;28;20078;-76
2023/04/10 03:23:35;;;;;;;278.02;67.45;;;6.50;99.90;;;;;;4976721;28;20027;-76
2023/04/10 03:26:03;;;;;;;263.02;64.85;;;6.40;99.90;;;;;;4976510;28;20019;-76
2023/04/10 03:28:29;;;;;;;371.00;75.68;;;6.40;99.90;;;;;;4959012;28;20022;-76
2023/04/10 03:30:55;;;;;;;333.48;71.22;;;6.30;99.90;;;;;;4959047;28;20114;-76
2023/04/10 03:33:21;;;;;;;291.70;66.22;;;6.30;99.90;;;;;;4976471;28;20442;-76
2023/04/10 03:35:47;;;;;;;174.20;55.70;;;6.30;99.90;;;;;;4958781;28;20067;-76
2023/04/10 03:38:13;;;;;;;291.35;65.95;;;6.30;99.90;;;;;;4976288;28;20385;-76
2023/04/10 03:40:38;;;;;;;326.80;71.15;;;6.30;99.90;;;;;;4976413;28;20551;-76
2023/04/10 03:43:04;;;;;;;377.65;78.63;;;6.30;99.90;;;;;;4976265;28;20050;-77
2023/04/10 03:45:30;;;;;;;278.63;67.47;;;6.20;99.90;;;;;;4976063;28;20030;-76
2023/04/10 03:47:55;;;;;;;297.23;68.10;;;6.20;99.90;;;;;;4976333;28;20070;-76
2023/04/10 03:50:21;;;;;;;392.50;86.57;;;6.20;99.90;;;;;;4976073;28;20038;-76
2023/04/10 03:52:48;;;;;;;228.75;64.78;;;6.20;99.90;;;;;;4976026;28;20027;-76
2023/04/10 03:55:17;;;;;;;232.27;61.40;;;6.20;99.90;;;;;;4975833;28;20105;-76
2023/04/10 03:57:47;;;;;;;279.83;71.22;;;6.20;99.90;;;;;;4958558;28;20029;-76
2023/04/10 04:00:14;;;;;;;315.58;72.38;;;6.20;99.90;;;;;;4958509;28;20066;-77
2023/04/10 04:02:40;;;;;;;297.30;70.22;;;6.20;99.90;;;;;;4958405;28;20481;-76
2023/04/10 04:05:06;;;;;;;206.98;61.20;;;6.10;99.90;;;;;;4975818;28;20030;-76
2023/04/10 04:07:31;;;;;;;266.25;64.15;;;6.10;99.90;;;;;;4975567;28;20050;-76
2023/04/10 04:09:57;;;;;;;286.63;67.13;;;6.10;99.90;;;;;;4958289;28;20023;-76
2023/04/10 04:12:23;;;;;;;203.18;63.90;;;6.10;99.90;;;;;;4975872;28;20023;-76
2023/04/10 04:14:48;;;;;;;201.43;61.90;;;6.10;99.90;;;;;;4975536;28;20057;-76
2023/04/10 04:17:14;;;;;;;190.80;58.72;;;6.10;99.90;;;;;;4958284;28;20031;-76
2023/04/10 04:19:39;;;;;;;183.77;59.85;;;6.20;99.90;;;;;;4958109;28;20473;-77
2023/04/10 04:22:05;;;;;;;236.13;66.15;;;6.20;99.90;;;;;;4958231;28;20141;-76
2023/04/10 04:24:31;;;;;;;232.88;67.63;;;6.20;99.90;;;;;;4975456;28;20038;-76
2023/04/10 04:26:56;;;;;;;204.23;64.63;;;6.20;99.90;;;;;;4975409;28;20084;-76
2023/04/10 04:29:22;;;;;;;228.40;67.95;;;6.20;99.90;;;;;;4958005;28;20502;-76
2023/04/10 04:31:48;;;;;;;214.00;61.63;;;6.20;99.90;;;;;;4957898;28;20023;-76
2023/04/10 04:34:13;;;;;;;161.27;58.15;;;6.30;99.90;;;;;;4978402;28;20132;-76
2023/04/10 04:36:39;;;;;;;230.27;65.75;;;6.30;99.90;;;;;;4982571;28;20018;-76
2023/04/10 04:39:04;;;;;;;191.57;59.85;;;6.30;99.90;;;;;;4959585;28;20374;-76
2023/04/10 04:41:31;;;;;;;184.60;59.65;;;6.30;99.90;;;;;;4965900;28;20030;-76
2023/04/10 04:43:57;;;;;;;163.52;57.75;;;6.30;99.90;;;;;;4985014;28;20026;-76
2023/04/10 04:46:23;;;;;;;197.50;63.38;;;6.30;99.90;;;;;;4982987;28;20492;-76
2023/04/10 04:48:49;;;;;;;175.52;59.47;;;6.40;99.90;;;;;;4983212;28;20063;-76
2023/04/10 04:51:15;;;;;;;194.43;66.00;;;6.40;99.90;;;;;;4974873;28;20370;-76
2023/04/10 04:53:40;;;;;;;173.95;60.75;;;6.30;99.90;;;;;;4979989;28;20029;-76
2023/04/10 04:56:06;;;;;;;139.82;50.78;;;6.40;99.90;;;;;;4984117;28;20037;-76
2023/04/10 04:58:32;;;;;;;150.65;53.25;;;6.40;99.90;;;;;;4978853;28;20034;-76
2023/04/10 05:00:58;;;;;;;196.57;62.63;;;6.30;99.90;;;;;;4980194;28;20030;-76
2023/04/10 05:03:23;;;;;;;136.25;52.45;;;6.40;99.90;;;;;;4966468;28;20045;-77
2023/04/10 05:05:49;;;;;;;142.95;54.95;;;6.40;99.90;;;;;;4957522;28;20027;-76
2023/04/10 05:08:15;;;;;;;135.30;52.67;;;6.40;99.90;;;;;;4974842;28;20081;-77
2023/04/10 05:10:40;;;;;;;156.27;59.13;;;6.40;99.90;;;;;;4981989;28;20111;-76
2023/04/10 05:13:06;;;;;;;146.10;55.97;;;6.50;99.90;;;;;;4957287;28;20501;-76
2023/04/10 05:15:32;;;;;;;138.95;54.17;;;6.40;99.90;;;;;;4974434;28;20035;-76
2023/04/10 05:17:57;;;;;;;134.05;55.83;;;6.40;99.90;;;;;;4974634;28;20125;-76
2023/04/10 05:20:23;;;;;;;134.00;51.33;;;6.40;99.90;;;;;;4974044;28;20065;-76
2023/04/10 05:22:51;;;;;;;142.63;56.90;;;6.40;99.90;;;;;;4974635;28;20038;-76
2023/04/10 05:25:17;;;;;;;128.43;51.08;;;6.40;99.90;;;;;;4957052;28;20134;-76
2023/04/10 05:27:43;;;;;;;126.18;50.40;;;6.40;99.90;;;;;;4974539;28;20113;-76
2023/04/10 05:30:09;;;;;;;130.82;54.00;;;6.40;99.90;;;;;;4953823;29;20058;-76
2023/04/10 05:32:34;;;;;;;132.35;52.80;;;6.40;99.90;;;;;;4953179;29;20024;-76
2023/04/10 05:35:00;;;;;;;137.85;52.55;;;6.50;99.90;;;;;;4955047;29;20119;-76
2023/04/10 05:37:26;;;;;;;134.02;51.97;;;6.50;99.90;;;;;;4972182;28;20373;-76
2023/04/10 05:39:51;;;;;;;130.23;52.53;;;6.50;99.90;;;;;;4974584;28;20038;-76
2023/04/10 05:42:17;;;;;;;137.57;52.70;;;6.50;99.90;;;;;;4981669;28;20099;-76
2023/04/10 05:44:44;;;;;;;140.32;54.10;;;6.50;99.90;;;;;;4965704;28;20074;-76
2023/04/10 05:47:09;;;;;;;145.52;52.75;;;6.50;99.90;;;;;;4958867;28;20026;-76
2023/04/10 05:49:35;;;;;;;130.75;51.28;;;6.50;99.90;;;;;;4956797;28;20030;-77
2023/04/10 05:52:01;;;;;;;130.23;52.03;;;6.50;99.90;;;;;;4974267;28;20027;-77
2023/04/10 05:54:26;;;;;;;124.13;52.20;;;6.60;99.90;;;;;;4974082;28;20065;-77
2023/04/10 05:56:52;;;;;;;119.35;49.47;;;6.70;99.90;;;;;;4956105;28;20821;-77
2023/04/10 05:59:18;;;;;;;122.90;50.42;;;6.80;99.90;;;;;;4956642;28;20030;-77
2023/04/10 06:01:45;;;;;;;128.00;54.63;;;6.80;99.90;;;;;;4973829;28;20065;-77
2023/04/10 06:04:10;;;;;;;144.98;60.63;;;6.90;99.90;;;;;;4956617;28;20054;-77
2023/04/10 06:06:37;;;;;;;115.35;52.60;;;7.00;99.90;;;;;;4956256;28;20473;-77
2023/04/10 06:09:03;;;;;;;112.97;48.58;;;7.00;99.90;;;;;;4956557;28;20499;-77
2023/04/10 06:11:28;;;;;;;105.43;46.00;;;7.10;99.90;;;;;;4973779;28;20026;-77
2023/04/10 06:13:54;;;;;;;95.35;43.40;;;7.10;99.90;;;;;;4956419;28;20034;-77
2023/04/10 06:16:20;;;;;;;101.13;43.35;;;7.10;99.90;;;;;;4973764;28;20046;-77
2023/04/10 06:18:46;;;;;;;105.30;44.42;;;7.20;99.90;;;;;;4956301;28;20469;-77
2023/04/10 06:21:12;;;;;;;105.40;43.45;;;7.20;99.90;;;;;;4956264;28;20413;-77
2023/04/10 06:23:38;;;;;;;98.68;40.97;;;7.30;99.90;;;;;;4956620;28;20057;-77
2023/04/10 06:26:04;;;;;;;95.20;42.28;;;7.30;99.90;;;;;;4956332;28;20027;-78
2023/04/10 06:28:29;;;;;;;104.18;43.80;;;7.30;99.90;;;;;;4973609;28;20031;-77
2023/04/10 06:30:56;;;;;;;95.38;41.42;;;7.30;99.90;;;;;;4958061;28;20033;-77
2023/04/10 06:33:21;;;;;;;99.57;44.05;;;7.40;99.90;;;;;;4977352;28;20022;-77
2023/04/10 06:35:47;;;;;;;98.25;42.88;;;7.40;99.90;;;;;;4977248;28;20043;-77
2023/04/10 06:38:13;;;;;;;101.68;43.40;;;7.50;99.90;;;;;;4959737;28;20058;-77
2023/04/10 06:40:40;;;;;;;91.60;42.90;;;7.50;99.90;;;;;;4977020;28;20049;-77
2023/04/10 06:43:05;;;;;;;95.25;40.10;;;7.60;99.90;;;;;;4959651;28;20110;-77
2023/04/10 06:45:31;;;;;;;107.00;45.00;;;7.60;99.90;;;;;;4977130;28;20027;-77
2023/04/10 06:47:56;;;;;;;102.97;50.28;;;7.70;99.90;;;;;;4959464;28;20059;-78
2023/04/10 06:50:22;;;;;;;102.82;44.80;;;7.60;99.90;;;;;;4959549;28;20027;-77
2023/04/10 06:52:48;;;;;;;99.65;45.05;;;7.60;99.90;;;;;;4959339;28;20026;-77
2023/04/10 06:55:13;;;;;;;97.57;46.47;;;7.60;99.90;;;;;;4959634;28;20039;-77
2023/04/10 06:57:39;;;;;;;104.70;47.15;;;7.60;99.90;;;;;;4959469;28;20022;-77
2023/04/10 07:00:06;;;;;;;98.10;43.80;;;7.70;99.90;;;;;;4959540;28;20093;-77
2023/04/10 07:02:32;;;;;;;99.68;44.80;;;7.60;99.90;;;;;;4976537;28;20046;-78
2023/04/10 07:04:57;;;;;;;97.07;43.67;;;7.60;99.90;;;;;;4958869;28;20023;-77
2023/04/10 07:07:23;;;;;;;95.68;45.38;;;7.70;99.90;;;;;;4959165;28;20116;-77
2023/04/10 07:09:49;;;;;;;92.35;42.63;;;7.70;99.90;;;;;;4959014;28;20448;-78
2023/04/10 07:12:15;;;;;;;91.07;42.28;;;7.70;99.90;;;;;;4976375;28;20396;-77
2023/04/10 07:14:41;;;;;;;102.93;44.30;;;7.80;99.90;;;;;;4959044;28;20046;-77
2023/04/10 07:17:07;;;;;;;80.65;39.38;;;7.70;99.90;;;;;;4976319;28;20023;-77
2023/04/10 07:19:33;;;;;;;85.32;39.63;;;7.80;99.90;;;;;;4976335;28;20027;-77
2023/04/10 07:21:59;;;;;;;91.68;43.97;;;7.90;99.90;;;;;;4958507;28;20042;-77
2023/04/10 07:24:25;;;;;;;85.55;40.95;;;7.90;99.90;;;;;;4976261;28;20030;-78
2023/04/10 07:26:51;;;;;;;95.50;43.17;;;8.00;99.90;;;;;;4976204;28;20385;-77
2023/04/10 07:29:17;;;;;;;94.95;43.28;;;8.00;99.90;;;;;;4957970;28;20536;-77
2023/04/10 07:31:42;;;;;;;94.82;44.40;;;8.20;99.90;;;;;;4974329;28;20027;-77
2023/04/10 07:34:10;;;;;;;91.45;42.30;;;8.20;99.90;;;;;;4958136;28;20560;-78
2023/04/10 07:36:35;;;;;;;89.55;41.90;;;8.20;99.90;;;;;;4975784;28;20110;-78
2023/04/10 07:39:01;;;;;;;88.22;37.67;;;8.30;99.90;;;;;;4975624;28;20101;-77
2023/04/10 07:41:27;;;;;;;90.00;40.75;;;8.30;99.90;;;;;;4975207;28;20050;-78
2023/04/10 07:43:52;;;;;;;98.93;45.58;;;8.50;99.90;;;;;;4975521;28;20093;-77
2023/04/10 07:46:18;;;;;;;87.70;40.60;;;8.70;99.90;;;;;;4976393;28;20102;-76
2023/04/10 07:48:45;;;;;;;90.63;41.15;;;8.60;99.90;;;;;;4977790;28;20471;-77
2023/04/10 07:51:11;;;;;;;87.25;40.25;;;8.40;99.90;;;;;;4974535;28;20027;-77
2023/04/10 07:53:37;;;;;;;89.68;44.80;;;8.40;99.90;;;;;;4958228;28;20026;-77
2023/04/10 07:56:03;;;;;;;86.07;38.92;;;8.40;99.90;;;;;;4976550;28;20480;-76
2023/04/10 07:58:30;;;;;;;96.45;42.60;;;8.40;99.90;;;;;;4960663;28;20023;-77
2023/04/10 08:00:56;;;;;;;98.60;44.70;;;8.30;99.90;;;;;;4975735;28;20031;-76
2023/04/10 08:03:22;;;;;;;86.78;41.03;;;8.30;99.90;;;;;;4975206;28;20038;-78
2023/04/10 08:05:48;;;;;;;84.05;39.97;;;8.30;99.90;;;;;;4975601;28;20460;-77
2023/04/10 08:08:15;;;;;;;83.25;40.83;;;8.30;99.90;;;;;;4958040;28;20030;-77
2023/04/10 08:10:40;;;;;;;94.25;41.42;;;8.40;99.90;;;;;;4958167;28;20027;-77
2023/04/10 08:13:06;;;;;;;89.93;41.80;;;8.30;99.90;;;;;;4975213;28;20464;-78
2023/04/10 08:15:32;;;;;;;93.10;40.08;;;8.30;99.90;;;;;;4957891;28;20489;-78
2023/04/10 08:17:57;;;;;;;88.63;41.45;;;8.20;99.90;;;;;;4971085;28;20118;-77
2023/04/10 08:20:23;;;;;;;99.28;44.13;;;8.30;99.90;;;;;;4973283;28;20097;-77
2023/04/10 08:22:48;;;;;;;95.30;43.88;;;8.20;99.90;;;;;;4971156;28;20030;-77
2023/04/10 08:25:14;;;;;;;87.80;39.42;;;8.30;99.90;;;;;;4974629;28;20041;-77
2023/04/10 08:27:40;;;;;;;81.28;39.22;;;8.40;99.90;;;;;;4967716;28;20477;-77
2023/04/10 08:30:06;;;;;;;89.65;39.75;;;8.40;99.90;;;;;;4974449;28;20043;-77
2023/04/10 08:32:31;;;;;;;92.40;40.70;;;8.40;99.90;;;;;;4974346;28;20336;-77
2023/04/10 08:34:57;;;;;;;85.35;38.13;;;8.30;99.90;;;;;;4972512;28;20452;-77
2023/04/10 08:37:25;;;;;;;83.57;39.65;;;8.30;99.90;;;;;;4970473;28;20074;-77
2023/04/10 08:39:50;;;;;;;84.53;38.38;;;8.40;99.90;;;;;;4972762;28;20030;-77
2023/04/10 08:42:16;;;;;;;84.07;37.67;;;8.40;99.90;;;;;;4974189;28;20030;-77
2023/04/10 08:44:42;;;;;;;83.80;39.60;;;8.50;99.90;;;;;;4974156;28;20504;-77
2023/04/10 08:47:08;;;;;;;86.43;38.78;;;8.60;99.90;;;;;;4971928;28;20492;-77
2023/04/10 08:49:46;;;;;;;79.60;37.17;;;8.70;99.90;;;;;;4974211;28;20648;-77
2023/04/10 08:52:20;;;;;;;79.65;37.95;;;8.70;99.90;;;;;;4974055;28;20446;-78
2023/04/10 08:54:50;;;;;;;76.03;34.72;;;8.90;99.90;;;;;;4973784;28;20034;-78
2023/04/10 08:57:19;;;;;;;74.93;34.38;;;8.90;99.90;;;;;;4957186;28;20389;-78
2023/04/10 08:59:48;;;;;;;72.50;33.33;;;9.00;99.90;;;;;;4974533;28;20030;-78
2023/04/10 09:02:14;;;;;;;65.55;32.35;;;9.20;99.90;;;;;;4956825;28;20033;-78
2023/04/10 09:04:47;;;;;;;58.30;31.88;;;9.30;99.90;;;;;;4974529;28;20037;-78
2023/04/10 09:07:12;;;;;;;51.30;25.77;;;9.50;99.90;;;;;;4976132;28;20058;-78
2023/04/10 09:09:38;;;;;;;50.45;25.40;;;9.70;99.90;;;;;;4969263;28;20093;-78
2023/04/10 09:12:05;;;;;;;54.05;24.83;;;9.80;99.90;;;;;;4959473;28;20038;-78
2023/04/10 09:14:32;;;;;;;42.42;24.40;;;9.80;99.90;;;;;;4972943;28;20046;-78
2023/04/10 09:17:18;;;;;;;46.38;26.75;;;10.10;99.90;;;;;;4956068;28;20034;-78
2023/04/10 09:19:45;;;;;;;40.22;21.55;;;10.10;99.90;;;;;;4972406;28;20046;-78
2023/04/10 09:22:12;;;;;;;35.17;19.50;;;10.20;99.90;;;;;;4953502;28;20046;-77
2023/04/10 09:24:39;;;;;;;42.67;21.70;;;10.20;99.90;;;;;;4972105;28;20042;-77
2023/04/10 09:27:05;;;;;;;32.65;16.67;;;10.30;99.90;;;;;;4973498;28;20031;-77
2023/04/10 09:29:47;;;;;;;37.58;19.98;;;10.40;99.90;;;;;;4956778;28;20022;-77
2023/04/10 09:32:33;;;;;;;35.17;18.42;;;10.60;99.90;;;;;;4956672;28;20019;-78
2023/04/10 09:34:59;;;;;;;31.83;18.13;;;10.80;99.90;;;;;;4973080;28;20046;-77
2023/04/10 09:37:32;;;;;;;30.20;18.15;;;10.80;99.90;;;;;;4955092;28;20492;-78
2023/04/10 09:39:57;;;;;;;43.85;23.17;;;10.70;99.90;;;;;;4955549;28;20035;-77
2023/04/10 09:42:38;;;;;;;55.15;26.38;;;10.80;99.90;;;;;;4972928;28;20053;-78
2023/04/10 09:45:04;;;;;;;41.78;23.88;;;11.10;99.90;;;;;;4945064;28;20037;-77
2023/04/10 09:47:31;;;;;;;42.33;22.33;;;11.00;99.90;;;;;;4967545;28;20050;-77
2023/04/10 09:50:01;;;;;;;39.50;22.52;;;11.00;99.90;;;;;;4956237;28;20503;-77
2023/04/10 09:52:31;;;;;;;39.50;21.48;;;11.20;99.90;;;;;;5029960;23;20065;-84
2023/04/10 09:55:02;;;;;;;45.55;23.00;;;11.60;99.90;;;;;;4986446;28;20077;-83
2023/04/10 09:57:30;;;;;;;43.53;22.80;;;11.60;99.90;;;;;;4981444;28;20042;-87
2023/04/10 10:00:00;;;;;;;39.03;21.35;;;11.30;99.90;;;;;;5011200;28;20460;-84
2023/04/10 10:02:28;;;;;;;40.38;22.63;;;11.40;99.90;;;;;;5011202;28;20022;-83
2023/04/10 10:04:56;;;;;;;42.75;23.73;;;11.30;99.90;;;;;;4992929;28;20025;-84
2023/04/10 10:07:23;;;;;;;35.10;20.20;;;11.50;99.90;;;;;;4983846;28;20630;-83
2023/04/10 10:09:51;;;;;;;41.80;20.50;;;11.20;99.90;;;;;;4994989;28;20033;-83
2023/04/10 10:12:26;;;;;;;46.28;24.63;;;11.20;99.90;;;;;;4985096;28;20088;-83
2023/04/10 10:15:13;;;;;;;117.55;70.80;;;11.40;99.90;;;;;;4978140;28;20456;-85
2023/04/10 10:17:46;;;;;;;45.35;22.92;;;11.50;99.90;;;;;;4985942;28;20081;-85
2023/04/10 10:20:16;;;;;;;37.83;20.70;;;11.60;99.90;;;;;;4994978;28;20031;-85
2023/04/10 10:22:43;;;;;;;36.80;20.85;;;11.80;99.90;;;;;;4979025;28;20018;-84
2023/04/10 10:25:09;;;;;;;40.40;21.52;;;12.00;99.90;;;;;;4979087;28;20392;-85
2023/04/10 10:27:39;;;;;;;31.00;18.58;;;12.30;99.90;;;;;;4994621;28;20497;-86
2023/04/10 10:30:06;;;;;;;37.92;21.85;;;12.30;97.60;;;;;;4994977;28;20019;-83
2023/04/10 10:32:34;;;;;;;39.00;22.33;;;12.30;98.80;;;;;;4995289;28;20026;-85
2023/04/10 10:35:06;;;;;;;40.47;21.00;;;12.20;99.90;;;;;;4993780;28;20108;-87
2023/04/10 10:37:33;;;;;;;36.17;20.20;;;12.00;99.90;;;;;;4994192;28;20061;-83
2023/04/10 10:40:32;;;;;;;42.70;19.75;;;11.90;99.90;;;;;;4981676;28;20845;-83
2023/04/10 10:43:24;;;;;;;32.25;19.27;;;11.80;99.90;;;;;;4987337;28;20058;-86
2023/04/10 10:46:13;;;;;;;38.45;21.52;;;11.70;99.90;;;;;;5021119;28;20026;-84
2023/04/10 10:48:39;;;;;;;42.97;21.65;;;11.60;99.90;;;;;;5013650;28;20042;-83
2023/04/10 10:51:05;;;;;;;36.67;20.10;;;11.70;99.90;;;;;;4996908;28;20038;-85
2023/04/10 10:53:39;;;;;;;34.60;19.98;;;11.70;99.90;;;;;;4996287;28;20034;-83
2023/04/10 10:56:25;;;;;;;35.47;19.05;;;11.60;99.90;;;;;;5012663;28;20407;-82
2023/04/10 10:58:57;;;;;;;31.35;17.33;;;11.90;99.90;;;;;;4997330;28;20030;-86
2023/04/10 11:01:23;;;;;;;31.77;17.88;;;12.10;99.90;;;;;;4996693;28;20536;-85
2023/04/10 11:03:49;;;;;;;28.35;16.25;;;12.20;98.80;;;;;;4997141;28;20108;-86
2023/04/10 11:06:18;;;;;;;28.77;16.65;;;12.50;96.10;;;;;;5014547;28;20394;-86
2023/04/10 11:08:51;;;;;;;27.67;15.63;;;12.70;92.30;;;;;;5008486;28;20026;-87
2023/04/10 11:11:24;;;;;;;31.77;18.67;;;12.80;89.90;;;;;;5013521;28;20056;-85
2023/04/10 11:13:50;;;;;;;27.95;16.83;;;12.80;92.30;;;;;;5013627;28;20026;-86
2023/04/10 11:16:17;;;;;;;27.08;15.93;;;12.70;87.90;;;;;;4996420;28;20065;-86
2023/04/10 11:18:46;;;;;;;29.23;16.17;;;12.70;89.20;;;;;;4992703;28;20022;-85
2023/04/10 11:21:16;;;;;;;26.55;14.88;;;12.80;88.40;;;;;;4992944;28;20046;-85
2023/04/10 11:23:54;;;;;;;30.05;18.27;;;12.90;86.20;;;;;;4993321;28;20014;-86
2023/04/10 11:26:42;;;;;;;23.15;14.07;;;12.90;85.40;;;;;;5006277;28;20124;-85
2023/04/10 11:29:16;;;;;;;22.77;15.32;;;12.90;84.40;;;;;;5012840;28;20460;-85
2023/04/10 11:31:54;;;;;;;22.65;15.18;;;12.90;83.50;;;;;;5005340;28;20065;-86
2023/04/10 11:34:19;;;;;;;37.42;21.75;;;13.00;83.20;;;;;;5013185;28;20459;-85
2023/04/10 11:36:46;;;;;;;31.58;17.88;;;13.20;83.80;;;;;;4996143;28;20087;-86
2023/04/10 11:39:17;;;;;;;27.17;15.27;;;13.50;83.70;;;;;;4995832;28;20053;-86
2023/04/10 11:41:47;;;;;;;21.92;13.63;;;13.50;81.50;;;;;;4996381;28;20525;-86
2023/04/10 11:44:19;;;;;;;22.92;14.90;;;13.40;79.90;;;;;;4996441;28;20494;-86
2023/04/10 11:46:46;;;;;;;20.80;14.13;;;13.50;81.10;;;;;;4995884;28;20034;-86
2023/04/10 11:49:23;;;;;;;23.70;13.23;;;13.70;82.50;;;;;;4996233;28;20041;-85
2023/04/10 11:51:50;;;;;;;20.60;13.32;;;13.50;79.60;;;;;;4987021;28;20397;-86
2023/04/10 11:54:21;;;;;;;20.33;13.07;;;13.20;79.80;;;;;;4995838;28;20027;-86
2023/04/10 11:57:03;;;;;;;19.15;12.27;;;13.30;80.10;;;;;;5005489;28;20030;-85
2023/04/10 11:59:30;;;;;;;;;;;13.50;80.20;;;;;;5010220;28;20022;-86
2023/04/10 12:02:06;;;;;;;19.77;10.88;;;13.70;79.30;;;;;;4992703;28;20271;-87
2023/04/10 12:04:33;;;;;;;22.05;11.88;;;13.60;77.40;;;;;;5001778;28;20022;-86
2023/04/10 12:07:00;;;;;;;17.92;10.95;;;13.70;76.80;;;;;;5001701;28;20034;-86
2023/04/10 12:09:26;;;;;;;33.10;16.92;;;13.80;75.70;;;;;;5003023;28;20040;-85
2023/04/10 12:12:01;;;;;;;17.25;11.32;;;13.80;75.40;;;;;;5002959;28;20093;-85
2023/04/10 12:14:36;;;;;;;19.15;12.20;;;13.50;76.50;;;;;;5001671;28;20125;-86
2023/04/10 12:17:04;;;;;;;21.95;12.40;;;13.40;82.20;;;;;;5001216;28;20090;-86
2023/04/10 12:19:33;;;;;;;18.17;13.13;;;13.20;81.80;;;;;;5003362;28;20045;-86
2023/04/10 12:22:01;;;;;;;19.63;11.48;;;13.20;82.80;;;;;;4980865;28;20034;-87
2023/04/10 12:24:45;;;;;;;16.00;10.23;;;13.30;79.70;;;;;;4987154;28;20117;-87
2023/04/10 12:27:25;;;;;;;16.73;10.98;;;13.30;78.30;;;;;;4991090;28;20093;-88
2023/04/10 12:29:53;;;;;;;15.15;10.30;;;13.40;77.30;;;;;;4998308;28;20022;-86
2023/04/10 12:32:19;;;;;;;13.57;10.60;;;13.50;77.80;;;;;;4982313;28;20038;-86
2023/04/10 12:35:24;;;;;;;12.80;9.15;;;13.70;76.70;;;;;;4991490;28;20080;-87